Terminal Aerodrome Forecast
Issued by NWS Twin Cities, MN

Home | Current Version | Previous Version | Graphics & Text | Print | Product List | Glossary On
Versions: 1 2 3 4 5 6 7 8 9 10 11 12 13 14 15 16 17 18 19 20 21
768
FTUS43 KMPX 070538
TAFEAU
TAF
KEAU 070538Z 0706/0806 20013KT 6SM -SN OVC035
     FM070700 22011KT P6SM BKN120
     FM071600 26012KT P6SM SCT025 OVC035
     FM080100 27013G20KT 2SM -SHSN OVC018=

USA.gov is the U.S. government's official web portal to all federal, state and local government web resources and services.